Terminal Aerodrome Forecast
Issued by NWS

Home | Current Version | Previous Version | Text Only | Print | Product List | Glossary On
Versions: 1 2 3 4 5 6 7 8 9 10 11 12 13 14 15 16 17 18 19 20 21 22 23 24 25 26 27 28
000
FTUS45 KTWC 261740
TAFOLS
TAF
KOLS 261740Z 2618/2718 26016G24KT P6SM BKN050
     FM261900 27020G29KT P6SM SCT060 BKN100
     FM270300 22008KT P6SM FEW120
     FM270800 VRB03KT P6SM SKC=

USA.gov is the U.S. government's official web portal to all federal, state and local government web resources and services.